Main page
METAR-TAF:

METAR-TAF

Airports :

Base Aérea de Alcantarilla

Murcia, Spain

latitude: 37-57N, longitude: 001-14W, elevation: 75 m

Current weather observation

The report was made 4 hours and 24 minutes ago, at 18:00 UTC
Wind 10 kt from the South/Southeast, varying between Southeast and South/Southwest
Temperature 35°C
Humidity 19%
Pressure 1010 hPa
Visibility 10 km or more
no clouds below 1500 m and no cumulonimbus

METAR: LERI 181800Z 16010KT 130V210 CAVOK 35/08 Q1010 NOSIG

Time: 00:24 (22:24 UTC)

Forecast

The report was made 8 hours and 24 minutes ago, at 14:00 UTC
Forecast valid from 18 at 15 UTC to 18 at 24 UTC
Wind 10 kt from the South
Visibility 10 km or more
no clouds below 1500 m and no cumulonimbus

TAF: LERI 181400Z 1815/1824 19010KT CAVOK

Weather observations and forecasts of more than 4000 airports (METAR and TAF reports).

The available stations are represented by yellow and red dots on the map.

Hover mouse over dot to see the name of the station.

Then click to see weather observations and forecasts.

To change the map : click on the green buttons with a black cross to zoom in, on the green button with a dash to zoom out, or on the green arrows for adjacent maps.


METAR-TAF: